Flight Track Log - Related Links

Times and Time Zones

All times are in EDT time to prevent confusion due to time zone crossing. See the N3223B flight status page for this flight to view local times or setup timezone preferences in your user account.

Time Position Orientation Groundspeed Altitude Reporting Facility
EDT Latitude Longitude Course Direction KTS MPH feet Rate Location/Type
Wed 04:17:56 PM 41.2667 -72.8500 323° Northwest 129 148 8,500  Level New York TRACON
Wed 04:19:02 PM 41.3000 -72.8833 323° Northwest 161 185 8,500  Level New York TRACON
Wed 04:20:02 PM 41.3500 -72.9000 346° North 162 186 8,500  Level New York TRACON
Wed 04:21:02 PM 41.3833 -72.9167 339° North 167 192 8,500  Level New York TRACON
Wed 04:21:56 PM 41.4167 -72.9500 323° Northwest 168 193 8,500 50 Level New York TRACON
Wed 04:23:02 PM 41.4667 -72.9833 333° Northwest 166 191 8,600  Climbing New York TRACON
Wed 04:24:02 PM 41.5000 -73.0167 323° Northwest 166 191 8,500 -50 Descending New York TRACON
Wed 04:25:02 PM 41.5500 -73.0333 346° North 160 184 8,500 50 Level New York TRACON
Wed 04:26:02 PM 41.5833 -73.0500 339° North 158 182 8,600 63 Climbing New York TRACON
Wed 04:26:38 PM 41.6108 -73.0758 325° Northwest 161 185 8,600 -66 Level Boston Center
Wed 04:27:33 PM 41.6461 -73.1014 332° Northwest 161 185 8,500 -52 Descending Boston Center
Wed 04:28:34 PM 41.6897 -73.1239 339° North 163 188 8,500 49 Level Boston Center
Wed 04:29:35 PM 41.7314 -73.1522 333° Northwest 165 190 8,600  Climbing Boston Center
Wed 04:30:35 PM 41.7728 -73.1778 335° Northwest 167 192 8,500 -50 Descending Boston Center
Wed 04:31:36 PM 41.8142 -73.2061 333° Northwest 166 191 8,500 49 Level Boston Center
Wed 04:32:37 PM 41.8578 -73.2317 336° Northwest 165 190 8,600  Climbing Boston Center
Wed 04:33:38 PM 41.8994 -73.2600 333° Northwest 163 188 8,500  Descending Boston Center
Wed 04:34:38 PM 41.9367 -73.2914 328° Northwest 162 186 8,600  Climbing Boston Center
Wed 04:35:39 PM 41.9739 -73.3197 330° Northwest 164 189 8,500 -63 Descending Boston Center
Wed 04:36:14 PM 41.9989 -73.3397 329° Northwest 164 189 8,500 -312 Level Boston Center
Wed 04:36:56 PM 42.0278 -73.3653 327° Northwest 164 189 8,100 -699 Descending Boston Center
Wed 04:37:57 PM 42.0669 -73.4050 323° Northwest 177 204 7,300 -738 Descending Boston Center
Wed 04:38:58 PM 42.1083 -73.4419 326° Northwest 180 207 6,600 -694 Descending Boston Center
Wed 04:39:58 PM 42.1478 -73.4761 327° Northwest 173 199 5,900 -709 Descending Boston Center
Wed 04:41:05 PM 42.1889 -73.5133 326° Northwest 164 189 5,100 -516 Descending Boston Center
Wed 04:42:06 PM 42.2283 -73.5503 325° Northwest 156 180 4,800 -298 Descending Boston Center
Wed 04:43:06 PM 42.2614 -73.5789 327° Northwest 146 168 4,500 -248 Descending Boston Center
Wed 04:44:07 PM 42.2944 -73.6106 325° Northwest 146 168 4,300 -224 Descending Boston Center
Wed 04:45:20 PM 42.3375 -73.6592 320° Northwest 164 189 4,000 -375 Descending Boston Center
Wed 04:46:15 PM 42.3642 -73.6989 312° West 165 190 3,500 -470 Descending Boston Center
Wed 04:47:15 PM 42.3908 -73.7417 310° West 153 176 3,100 -446 Descending Boston Center
Wed 04:48:16 PM 42.4194 -73.7844 312° West 150 173 2,600 -492 Descending Boston Center

Login

Don't have an account? Register now (free) for customized features, flight alerts, and more!